sensor_id;sensor_type;location;lat;lon;timestamp;temperature;humidity
26479;DHT22;14163;-26.142;27.992;2022-11-20T02:05:02;22.40;99.90
26479;DHT22;14163;-26.142;27.992;2022-11-20T02:07:33;18.80;98.80
26479;DHT22;14163;-26.142;27.992;2022-11-20T02:10:02;19.40;98.00
26479;DHT22;14163;-26.142;27.992;2022-11-20T02:12:32;20.20;96.40
26479;DHT22;14163;-26.142;27.992;2022-11-20T02:15:18;20.90;95.60
26479;DHT22;14163;-26.142;27.992;2022-11-20T02:17:47;21.40;94.70
26479;DHT22;14163;-26.142;27.992;2022-11-20T02:20:18;21.80;94.40
26479;DHT22;14163;-26.142;27.992;2022-11-20T02:22:52;22.10;93.70
26479;DHT22;14163;-26.142;27.992;2022-11-20T02:25:26;22.20;93.60
26479;DHT22;14163;-26.142;27.992;2022-11-20T02:27:56;22.30;93.10
26479;DHT22;14163;-26.142;27.992;2022-11-20T02:30:26;22.40;92.40
26479;DHT22;14163;-26.142;27.992;2022-11-20T02:32:55;22.40;92.80
26479;DHT22;14163;-26.142;27.992;2022-11-20T02:35:42;22.40;92.50
26479;DHT22;14163;-26.142;27.992;2022-11-20T02:38:12;22.50;92.30
26479;DHT22;14163;-26.142;27.992;2022-11-20T02:40:43;22.50;92.60
26479;DHT22;14163;-26.142;27.992;2022-11-20T02:43:12;22.40;90.50
26479;DHT22;14163;-26.142;27.992;2022-11-20T02:45:41;22.40;90.00
26479;DHT22;14163;-26.142;27.992;2022-11-20T02:48:11;22.50;90.10
26479;DHT22;14163;-26.142;27.992;2022-11-20T02:50:40;22.60;90.50
26479;DHT22;14163;-26.142;27.992;2022-11-20T02:53:09;22.60;90.20
26479;DHT22;14163;-26.142;27.992;2022-11-20T02:55:38;22.40;88.10
26479;DHT22;14163;-26.142;27.992;2022-11-20T02:58:09;22.50;88.50
26479;DHT22;14163;-26.142;27.992;2022-11-20T03:00:38;22.50;88.80
26479;DHT22;14163;-26.142;27.992;2022-11-20T03:03:08;22.50;89.60
26479;DHT22;14163;-26.142;27.992;2022-11-20T03:05:37;22.50;90.10
26479;DHT22;14163;-26.142;27.992;2022-11-20T03:08:06;22.40;90.20
26479;DHT22;14163;-26.142;27.992;2022-11-20T03:10:35;22.30;90.50
26479;DHT22;14163;-26.142;27.992;2022-11-20T03:13:05;22.20;90.80
26479;DHT22;14163;-26.142;27.992;2022-11-20T03:15:38;22.30;91.30
26479;DHT22;14163;-26.142;27.992;2022-11-20T03:18:08;22.30;90.30
26479;DHT22;14163;-26.142;27.992;2022-11-20T03:20:37;22.20;89.50
26479;DHT22;14163;-26.142;27.992;2022-11-20T03:23:06;22.20;89.20
26479;DHT22;14163;-26.142;27.992;2022-11-20T03:25:35;22.20;90.00
26479;DHT22;14163;-26.142;27.992;2022-11-20T03:28:06;22.10;90.30
26479;DHT22;14163;-26.142;27.992;2022-11-20T03:30:40;22.10;90.80
26479;DHT22;14163;-26.142;27.992;2022-11-20T03:33:10;22.10;90.60
26479;DHT22;14163;-26.142;27.992;2022-11-20T03:35:39;22.10;90.30
26479;DHT22;14163;-26.142;27.992;2022-11-20T03:38:08;22.20;90.30
26479;DHT22;14163;-26.142;27.992;2022-11-20T03:40:37;22.10;90.80
26479;DHT22;14163;-26.142;27.992;2022-11-20T03:43:06;22.20;91.00
26479;DHT22;14163;-26.142;27.992;2022-11-20T03:45:36;22.20;91.10
26479;DHT22;14163;-26.142;27.992;2022-11-20T03:48:07;22.20;91.10
26479;DHT22;14163;-26.142;27.992;2022-11-20T03:50:36;22.20;90.80
26479;DHT22;14163;-26.142;27.992;2022-11-20T03:53:05;22.20;91.30
26479;DHT22;14163;-26.142;27.992;2022-11-20T03:55:34;22.30;91.10
26479;DHT22;14163;-26.142;27.992;2022-11-20T03:58:03;22.30;91.10
26479;DHT22;14163;-26.142;27.992;2022-11-20T04:00:33;22.30;91.00
26479;DHT22;14163;-26.142;27.992;2022-11-20T04:03:02;22.40;90.80
26479;DHT22;14163;-26.142;27.992;2022-11-20T04:05:33;22.40;91.00
26479;DHT22;14163;-26.142;27.992;2022-11-20T04:08:02;22.50;91.30
26479;DHT22;14163;-26.142;27.992;2022-11-20T04:10:32;22.60;91.20
26479;DHT22;14163;-26.142;27.992;2022-11-20T04:13:01;22.60;90.40
26479;DHT22;14163;-26.142;27.992;2022-11-20T04:15:30;22.60;90.00
26479;DHT22;14163;-26.142;27.992;2022-11-20T04:17:59;22.70;89.80
26479;DHT22;14163;-26.142;27.992;2022-11-20T04:20:28;22.80;90.10
26479;DHT22;14163;-26.142;27.992;2022-11-20T04:22:59;22.80;89.10
26479;DHT22;14163;-26.142;27.992;2022-11-20T04:25:29;23.00;88.50
26479;DHT22;14163;-26.142;27.992;2022-11-20T04:27:58;23.10;87.50
26479;DHT22;14163;-26.142;27.992;2022-11-20T04:30:27;23.10;86.50
26479;DHT22;14163;-26.142;27.992;2022-11-20T04:32:56;23.10;87.80
26479;DHT22;14163;-26.142;27.992;2022-11-20T04:35:25;23.20;86.60
26479;DHT22;14163;-26.142;27.992;2022-11-20T04:37:54;23.20;87.70
26479;DHT22;14163;-26.142;27.992;2022-11-20T04:40:25;23.30;86.50
26479;DHT22;14163;-26.142;27.992;2022-11-20T04:42:55;23.30;84.80
26479;DHT22;14163;-26.142;27.992;2022-11-20T04:45:24;23.30;85.40
26479;DHT22;14163;-26.142;27.992;2022-11-20T04:47:53;23.30;85.70
26479;DHT22;14163;-26.142;27.992;2022-11-20T04:50:22;23.30;83.90
26479;DHT22;14163;-26.142;27.992;2022-11-20T04:52:51;23.30;85.40
26479;DHT22;14163;-26.142;27.992;2022-11-20T04:55:21;23.30;83.00
26479;DHT22;14163;-26.142;27.992;2022-11-20T04:57:52;23.40;83.10
26479;DHT22;14163;-26.142;27.992;2022-11-20T05:00:22;23.40;83.40
26479;DHT22;14163;-26.142;27.992;2022-11-20T05:02:51;23.40;82.70
26479;DHT22;14163;-26.142;27.992;2022-11-20T05:05:20;23.40;82.70
26479;DHT22;14163;-26.142;27.992;2022-11-20T05:07:49;23.40;83.40
26479;DHT22;14163;-26.142;27.992;2022-11-20T05:10:18;23.40;83.10
26479;DHT22;14163;-26.142;27.992;2022-11-20T05:12:47;23.30;81.70
26479;DHT22;14163;-26.142;27.992;2022-11-20T05:15:18;23.30;82.90
26479;DHT22;14163;-26.142;27.992;2022-11-20T05:17:50;23.40;82.70
26479;DHT22;14163;-26.142;27.992;2022-11-20T05:20:20;23.40;83.50
26479;DHT22;14163;-26.142;27.992;2022-11-20T05:22:49;23.50;83.50
26479;DHT22;14163;-26.142;27.992;2022-11-20T05:25:18;23.50;83.20
26479;DHT22;14163;-26.142;27.992;2022-11-20T05:27:47;23.60;83.00
26479;DHT22;14163;-26.142;27.992;2022-11-20T05:30:18;23.50;82.60
26479;DHT22;14163;-26.142;27.992;2022-11-20T05:32:47;23.50;83.90
26479;DHT22;14163;-26.142;27.992;2022-11-20T05:35:16;23.60;84.80
26479;DHT22;14163;-26.142;27.992;2022-11-20T05:37:46;23.60;83.80
26479;DHT22;14163;-26.142;27.992;2022-11-20T05:40:15;23.60;82.40
26479;DHT22;14163;-26.142;27.992;2022-11-20T05:42:44;23.70;83.80
26479;DHT22;14163;-26.142;27.992;2022-11-20T05:45:13;23.80;83.90
26479;DHT22;14163;-26.142;27.992;2022-11-20T05:47:44;23.70;83.70
26479;DHT22;14163;-26.142;27.992;2022-11-20T05:50:13;23.80;83.10
26479;DHT22;14163;-26.142;27.992;2022-11-20T05:52:42;23.90;83.20
26479;DHT22;14163;-26.142;27.992;2022-11-20T05:55:12;23.90;82.20
26479;DHT22;14163;-26.142;27.992;2022-11-20T05:57:41;23.90;81.30
26479;DHT22;14163;-26.142;27.992;2022-11-20T06:00:11;23.90;81.70
26479;DHT22;14163;-26.142;27.992;2022-11-20T06:02:41;24.00;81.30
26479;DHT22;14163;-26.142;27.992;2022-11-20T06:05:11;24.10;80.10
26479;DHT22;14163;-26.142;27.992;2022-11-20T06:07:41;24.10;78.60
26479;DHT22;14163;-26.142;27.992;2022-11-20T06:10:10;24.10;78.70
26479;DHT22;14163;-26.142;27.992;2022-11-20T06:12:39;24.10;77.50
26479;DHT22;14163;-26.142;27.992;2022-11-20T06:15:09;24.10;79.00
26479;DHT22;14163;-26.142;27.992;2022-11-20T06:17:38;24.20;79.60
26479;DHT22;14163;-26.142;27.992;2022-11-20T06:20:10;24.20;80.10
26479;DHT22;14163;-26.142;27.992;2022-11-20T06:22:39;24.30;79.20
26479;DHT22;14163;-26.142;27.992;2022-11-20T06:25:09;24.40;79.40
26479;DHT22;14163;-26.142;27.992;2022-11-20T06:27:38;24.40;81.10
26479;DHT22;14163;-26.142;27.992;2022-11-20T06:30:08;24.50;79.50
26479;DHT22;14163;-26.142;27.992;2022-11-20T06:32:38;24.50;78.90
26479;DHT22;14163;-26.142;27.992;2022-11-20T06:35:07;24.50;79.40
26479;DHT22;14163;-26.142;27.992;2022-11-20T06:37:38;24.60;81.20
26479;DHT22;14163;-26.142;27.992;2022-11-20T06:40:09;24.70;82.00
26479;DHT22;14163;-26.142;27.992;2022-11-20T06:42:38;24.60;83.20
26479;DHT22;14163;-26.142;27.992;2022-11-20T06:45:08;24.60;82.60
26479;DHT22;14163;-26.142;27.992;2022-11-20T06:47:38;24.60;80.90
26479;DHT22;14163;-26.142;27.992;2022-11-20T06:50:07;24.70;78.60
26479;DHT22;14163;-26.142;27.992;2022-11-20T06:52:38;24.80;78.70
26479;DHT22;14163;-26.142;27.992;2022-11-20T06:55:08;24.80;79.70
26479;DHT22;14163;-26.142;27.992;2022-11-20T06:57:37;24.90;81.10
26479;DHT22;14163;-26.142;27.992;2022-11-20T07:00:07;24.90;79.30
26479;DHT22;14163;-26.142;27.992;2022-11-20T07:02:37;25.00;79.40
26479;DHT22;14163;-26.142;27.992;2022-11-20T07:05:06;25.00;80.30
26479;DHT22;14163;-26.142;27.992;2022-11-20T07:07:37;25.00;79.80
26479;DHT22;14163;-26.142;27.992;2022-11-20T07:10:07;25.00;78.10
26479;DHT22;14163;-26.142;27.992;2022-11-20T07:12:36;25.00;79.50
26479;DHT22;14163;-26.142;27.992;2022-11-20T07:15:06;25.10;79.30
26479;DHT22;14163;-26.142;27.992;2022-11-20T07:17:36;25.10;78.90
26479;DHT22;14163;-26.142;27.992;2022-11-20T07:20:05;25.10;77.90
26479;DHT22;14163;-26.142;27.992;2022-11-20T07:22:34;25.10;76.80
26479;DHT22;14163;-26.142;27.992;2022-11-20T07:25:06;25.30;77.00
26479;DHT22;14163;-26.142;27.992;2022-11-20T07:27:36;25.30;77.20
26479;DHT22;14163;-26.142;27.992;2022-11-20T07:30:06;25.20;76.80
26479;DHT22;14163;-26.142;27.992;2022-11-20T07:32:35;25.20;78.70
26479;DHT22;14163;-26.142;27.992;2022-11-20T07:35:05;25.30;78.00
26479;DHT22;14163;-26.142;27.992;2022-11-20T07:37:35;25.30;76.50
26479;DHT22;14163;-26.142;27.992;2022-11-20T07:40:06;25.30;78.20
26479;DHT22;14163;-26.142;27.992;2022-11-20T07:42:36;25.30;77.80
26479;DHT22;14163;-26.142;27.992;2022-11-20T07:45:06;25.30;80.20
26479;DHT22;14163;-26.142;27.992;2022-11-20T07:47:38;25.40;77.70
26479;DHT22;14163;-26.142;27.992;2022-11-20T07:50:08;25.50;77.60
26479;DHT22;14163;-26.142;27.992;2022-11-20T07:52:37;25.50;77.50
26479;DHT22;14163;-26.142;27.992;2022-11-20T07:55:09;25.60;76.70
26479;DHT22;14163;-26.142;27.992;2022-11-20T07:57:39;25.60;77.00
26479;DHT22;14163;-26.142;27.992;2022-11-20T08:00:10;25.70;75.80
26479;DHT22;14163;-26.142;27.992;2022-11-20T08:02:39;25.80;76.20
26479;DHT22;14163;-26.142;27.992;2022-11-20T08:05:09;25.70;75.60
26479;DHT22;14163;-26.142;27.992;2022-11-20T08:07:39;25.70;76.50
26479;DHT22;14163;-26.142;27.992;2022-11-20T08:10:12;25.70;72.40
26479;DHT22;14163;-26.142;27.992;2022-11-20T08:12:45;25.70;74.10
26479;DHT22;14163;-26.142;27.992;2022-11-20T08:15:31;25.70;73.10
26479;DHT22;14163;-26.142;27.992;2022-11-20T08:18:02;25.70;74.10
26479;DHT22;14163;-26.142;27.992;2022-11-20T08:20:31;25.70;75.60
26479;DHT22;14163;-26.142;27.992;2022-11-20T08:23:01;25.80;74.50
26479;DHT22;14163;-26.142;27.992;2022-11-20T08:25:32;25.80;72.30
26479;DHT22;14163;-26.142;27.992;2022-11-20T08:28:03;25.80;72.70
26479;DHT22;14163;-26.142;27.992;2022-11-20T08:30:33;25.80;70.60
26479;DHT22;14163;-26.142;27.992;2022-11-20T08:33:04;25.80;72.70
26479;DHT22;14163;-26.142;27.992;2022-11-20T08:35:35;25.80;74.80
26479;DHT22;14163;-26.142;27.992;2022-11-20T08:38:05;25.80;68.90
26479;DHT22;14163;-26.142;27.992;2022-11-20T08:40:36;25.80;69.70
26479;DHT22;14163;-26.142;27.992;2022-11-20T08:43:05;25.90;66.50
26479;DHT22;14163;-26.142;27.992;2022-11-20T08:45:34;25.90;68.00
26479;DHT22;14163;-26.142;27.992;2022-11-20T08:48:04;25.90;68.70
26479;DHT22;14163;-26.142;27.992;2022-11-20T08:50:33;26.00;68.50
26479;DHT22;14163;-26.142;27.992;2022-11-20T08:53:05;26.00;66.50
26479;DHT22;14163;-26.142;27.992;2022-11-20T08:55:36;25.90;65.80
26479;DHT22;14163;-26.142;27.992;2022-11-20T08:58:06;25.90;66.60
26479;DHT22;14163;-26.142;27.992;2022-11-20T09:00:35;26.00;66.00
26479;DHT22;14163;-26.142;27.992;2022-11-20T09:03:05;26.00;63.40
26479;DHT22;14163;-26.142;27.992;2022-11-20T09:05:34;26.00;62.80
26479;DHT22;14163;-26.142;27.992;2022-11-20T09:08:03;26.10;61.80
26479;DHT22;14163;-26.142;27.992;2022-11-20T09:10:32;26.00;61.00
26479;DHT22;14163;-26.142;27.992;2022-11-20T09:13:03;26.10;57.40
26479;DHT22;14163;-26.142;27.992;2022-11-20T09:15:32;26.10;59.70
26479;DHT22;14163;-26.142;27.992;2022-11-20T09:18:03;26.10;61.50
26479;DHT22;14163;-26.142;27.992;2022-11-20T09:20:32;26.10;63.90
26479;DHT22;14163;-26.142;27.992;2022-11-20T09:23:02;26.10;61.00
26479;DHT22;14163;-26.142;27.992;2022-11-20T09:25:31;26.10;59.60
26479;DHT22;14163;-26.142;27.992;2022-11-20T09:28:02;26.20;62.30
26479;DHT22;14163;-26.142;27.992;2022-11-20T09:30:31;26.10;56.30
26479;DHT22;14163;-26.142;27.992;2022-11-20T09:33:00;26.10;57.40
26479;DHT22;14163;-26.142;27.992;2022-11-20T09:35:30;26.20;57.50
26479;DHT22;14163;-26.142;27.992;2022-11-20T09:38:03;26.20;58.30
26479;DHT22;14163;-26.142;27.992;2022-11-20T09:40:34;26.30;57.20
26479;DHT22;14163;-26.142;27.992;2022-11-20T09:43:11;26.40;60.90
26479;DHT22;14163;-26.142;27.992;2022-11-20T09:45:54;26.40;60.80
26479;DHT22;14163;-26.142;27.992;2022-11-20T09:51:36;26.40;53.00
26479;DHT22;14163;-26.142;27.992;2022-11-20T09:54:16;26.30;54.10
26479;DHT22;14163;-26.142;27.992;2022-11-20T09:56:46;26.50;56.40
26479;DHT22;14163;-26.142;27.992;2022-11-20T09:59:32;26.50;54.30
26479;DHT22;14163;-26.142;27.992;2022-11-20T10:02:08;26.60;58.30
26479;DHT22;14163;-26.142;27.992;2022-11-20T10:04:46;26.70;56.90
26479;DHT22;14163;-26.142;27.992;2022-11-20T10:07:19;26.70;59.40
26479;DHT22;14163;-26.142;27.992;2022-11-20T10:09:52;26.70;58.50
26479;DHT22;14163;-26.142;27.992;2022-11-20T10:12:27;26.70;53.00
26479;DHT22;14163;-26.142;27.992;2022-11-20T10:15:10;26.70;53.40
26479;DHT22;14163;-26.142;27.992;2022-11-20T10:17:58;26.90;54.70
26479;DHT22;14163;-26.142;27.992;2022-11-20T10:20:32;26.90;52.60
26479;DHT22;14163;-26.142;27.992;2022-11-20T10:23:26;27.00;53.80
26479;DHT22;14163;-26.142;27.992;2022-11-20T10:26:02;27.10;54.40
26479;DHT22;14163;-26.142;27.992;2022-11-20T10:28:48;27.10;53.30
26479;DHT22;14163;-26.142;27.992;2022-11-20T10:31:30;27.20;51.80
26479;DHT22;14163;-26.142;27.992;2022-11-20T10:34:03;27.20;53.00
26479;DHT22;14163;-26.142;27.992;2022-11-20T10:36:37;27.30;57.10
26479;DHT22;14163;-26.142;27.992;2022-11-20T10:39:15;27.40;52.90
26479;DHT22;14163;-26.142;27.992;2022-11-20T10:41:48;27.60;54.10
26479;DHT22;14163;-26.142;27.992;2022-11-20T10:44:20;27.60;53.40
26479;DHT22;14163;-26.142;27.992;2022-11-20T10:47:04;27.70;53.90
26479;DHT22;14163;-26.142;27.992;2022-11-20T10:49:34;27.80;49.80
26479;DHT22;14163;-26.142;27.992;2022-11-20T10:52:11;28.00;48.00
26479;DHT22;14163;-26.142;27.992;2022-11-20T10:54:46;28.00;49.00
26479;DHT22;14163;-26.142;27.992;2022-11-20T10:57:25;28.00;50.80
26479;DHT22;14163;-26.142;27.992;2022-11-20T11:00:04;28.10;49.60
26479;DHT22;14163;-26.142;27.992;2022-11-20T11:02:40;28.10;49.10
26479;DHT22;14163;-26.142;27.992;2022-11-20T11:05:23;28.20;49.30
26479;DHT22;14163;-26.142;27.992;2022-11-20T11:07:55;28.10;47.90
26479;DHT22;14163;-26.142;27.992;2022-11-20T11:10:27;28.00;48.20
26479;DHT22;14163;-26.142;27.992;2022-11-20T11:13:00;28.10;48.90
26479;DHT22;14163;-26.142;27.992;2022-11-20T11:15:36;28.20;48.30
26479;DHT22;14163;-26.142;27.992;2022-11-20T11:18:09;28.40;50.20
26479;DHT22;14163;-26.142;27.992;2022-11-20T11:20:39;28.50;48.70
26479;DHT22;14163;-26.142;27.992;2022-11-20T11:23:31;28.70;47.00
26479;DHT22;14163;-26.142;27.992;2022-11-20T11:26:01;29.00;49.80
26479;DHT22;14163;-26.142;27.992;2022-11-20T11:28:30;28.80;47.10
26479;DHT22;14163;-26.142;27.992;2022-11-20T11:31:00;29.00;47.80
26479;DHT22;14163;-26.142;27.992;2022-11-20T11:33:32;29.30;46.30
26479;DHT22;14163;-26.142;27.992;2022-11-20T11:36:14;29.40;45.20
26479;DHT22;14163;-26.142;27.992;2022-11-20T11:38:44;29.20;44.70
26479;DHT22;14163;-26.142;27.992;2022-11-20T11:41:16;29.30;45.00
26479;DHT22;14163;-26.142;27.992;2022-11-20T11:43:52;29.50;45.60
26479;DHT22;14163;-26.142;27.992;2022-11-20T11:46:44;29.80;47.60
26479;DHT22;14163;-26.142;27.992;2022-11-20T11:49:20;30.10;45.10
26479;DHT22;14163;-26.142;27.992;2022-11-20T11:52:04;30.40;44.80
26479;DHT22;14163;-26.142;27.992;2022-11-20T11:54:39;30.30;45.90
26479;DHT22;14163;-26.142;27.992;2022-11-20T11:57:15;30.60;49.70
26479;DHT22;14163;-26.142;27.992;2022-11-20T11:59:54;30.90;47.70
26479;DHT22;14163;-26.142;27.992;2022-11-20T12:02:34;31.00;45.50
26479;DHT22;14163;-26.142;27.992;2022-11-20T12:05:14;31.30;45.90
26479;DHT22;14163;-26.142;27.992;2022-11-20T12:07:47;31.60;44.10
26479;DHT22;14163;-26.142;27.992;2022-11-20T12:10:22;31.40;42.50
26479;DHT22;14163;-26.142;27.992;2022-11-20T12:12:54;31.60;42.60
26479;DHT22;14163;-26.142;27.992;2022-11-20T12:15:30;31.60;45.70
26479;DHT22;14163;-26.142;27.992;2022-11-20T12:18:00;31.50;43.80
26479;DHT22;14163;-26.142;27.992;2022-11-20T12:20:36;31.80;44.10
26479;DHT22;14163;-26.142;27.992;2022-11-20T12:23:14;31.90;42.00
26479;DHT22;14163;-26.142;27.992;2022-11-20T12:25:47;31.90;43.10
26479;DHT22;14163;-26.142;27.992;2022-11-20T12:28:31;31.60;41.60
26479;DHT22;14163;-26.142;27.992;2022-11-20T12:31:17;31.40;42.10
26479;DHT22;14163;-26.142;27.992;2022-11-20T12:34:01;31.80;41.20
26479;DHT22;14163;-26.142;27.992;2022-11-20T12:36:40;31.70;40.40
26479;DHT22;14163;-26.142;27.992;2022-11-20T12:39:24;31.60;41.20
26479;DHT22;14163;-26.142;27.992;2022-11-20T12:45:30;31.80;41.40
26479;DHT22;14163;-26.142;27.992;2022-11-20T12:48:22;31.50;41.90
26479;DHT22;14163;-26.142;27.992;2022-11-20T12:51:09;31.80;42.70
26479;DHT22;14163;-26.142;27.992;2022-11-20T12:53:49;32.00;42.00
26479;DHT22;14163;-26.142;27.992;2022-11-20T12:56:31;32.40;41.60
26479;DHT22;14163;-26.142;27.992;2022-11-20T12:59:17;32.60;41.20
26479;DHT22;14163;-26.142;27.992;2022-11-20T13:01:52;32.90;42.10
26479;DHT22;14163;-26.142;27.992;2022-11-20T13:04:51;32.90;41.80
26479;DHT22;14163;-26.142;27.992;2022-11-20T13:07:25;32.40;40.20
26479;DHT22;14163;-26.142;27.992;2022-11-20T13:09:59;32.20;40.60
26479;DHT22;14163;-26.142;27.992;2022-11-20T13:12:31;32.20;43.50
26479;DHT22;14163;-26.142;27.992;2022-11-20T13:15:08;32.00;41.30
26479;DHT22;14163;-26.142;27.992;2022-11-20T13:17:48;32.10;42.70
26479;DHT22;14163;-26.142;27.992;2022-11-20T13:20:21;32.20;43.60
26479;DHT22;14163;-26.142;27.992;2022-11-20T13:22:52;32.20;43.40
26479;DHT22;14163;-26.142;27.992;2022-11-20T13:25:27;32.20;43.30
26479;DHT22;14163;-26.142;27.992;2022-11-20T13:27:57;32.40;44.20
26479;DHT22;14163;-26.142;27.992;2022-11-20T13:30:27;32.00;43.50
26479;DHT22;14163;-26.142;27.992;2022-11-20T13:32:58;32.40;44.30
26479;DHT22;14163;-26.142;27.992;2022-11-20T13:35:31;32.30;43.50
26479;DHT22;14163;-26.142;27.992;2022-11-20T13:38:04;32.50;42.50
26479;DHT22;14163;-26.142;27.992;2022-11-20T13:40:37;32.70;44.10
26479;DHT22;14163;-26.142;27.992;2022-11-20T13:43:18;32.40;44.20
26479;DHT22;14163;-26.142;27.992;2022-11-20T13:45:59;32.60;42.30
26479;DHT22;14163;-26.142;27.992;2022-11-20T13:48:31;32.40;41.80
26479;DHT22;14163;-26.142;27.992;2022-11-20T13:51:07;32.30;42.00
26479;DHT22;14163;-26.142;27.992;2022-11-20T13:54:04;32.10;40.40
26479;DHT22;14163;-26.142;27.992;2022-11-20T13:56:47;31.90;42.90
26479;DHT22;14163;-26.142;27.992;2022-11-20T13:59:30;31.90;42.30
26479;DHT22;14163;-26.142;27.992;2022-11-20T14:02:05;32.00;44.60
26479;DHT22;14163;-26.142;27.992;2022-11-20T14:04:42;32.00;42.90
26479;DHT22;14163;-26.142;27.992;2022-11-20T14:07:13;31.50;43.30
26479;DHT22;14163;-26.142;27.992;2022-11-20T14:09:50;31.30;43.00
26479;DHT22;14163;-26.142;27.992;2022-11-20T14:12:27;31.20;42.40
26479;DHT22;14163;-26.142;27.992;2022-11-20T14:14:57;31.00;43.00
26479;DHT22;14163;-26.142;27.992;2022-11-20T14:17:31;30.90;43.50
26479;DHT22;14163;-26.142;27.992;2022-11-20T14:20:02;30.70;42.70
26479;DHT22;14163;-26.142;27.992;2022-11-20T14:22:33;30.70;43.10
26479;DHT22;14163;-26.142;27.992;2022-11-20T14:25:05;30.70;43.30
26479;DHT22;14163;-26.142;27.992;2022-11-20T14:27:38;30.80;43.60
26479;DHT22;14163;-26.142;27.992;2022-11-20T14:30:14;31.00;44.00
26479;DHT22;14163;-26.142;27.992;2022-11-20T14:32:45;31.10;43.40
26479;DHT22;14163;-26.142;27.992;2022-11-20T14:35:20;31.10;42.90
26479;DHT22;14163;-26.142;27.992;2022-11-20T14:37:50;31.10;44.20
26479;DHT22;14163;-26.142;27.992;2022-11-20T14:40:26;31.20;43.60
26479;DHT22;14163;-26.142;27.992;2022-11-20T14:42:58;31.20;43.80
26479;DHT22;14163;-26.142;27.992;2022-11-20T14:45:28;31.40;44.60
26479;DHT22;14163;-26.142;27.992;2022-11-20T14:47:58;31.50;44.40
26479;DHT22;14163;-26.142;27.992;2022-11-20T14:50:29;31.50;45.10
26479;DHT22;14163;-26.142;27.992;2022-11-20T14:52:59;31.30;45.60
26479;DHT22;14163;-26.142;27.992;2022-11-20T14:55:31;31.40;46.20
26479;DHT22;14163;-26.142;27.992;2022-11-20T14:58:03;31.40;46.20
26479;DHT22;14163;-26.142;27.992;2022-11-20T15:00:33;31.20;45.80
26479;DHT22;14163;-26.142;27.992;2022-11-20T15:03:15;31.20;46.50
26479;DHT22;14163;-26.142;27.992;2022-11-20T15:05:46;31.20;46.60
26479;DHT22;14163;-26.142;27.992;2022-11-20T15:08:16;31.10;46.30
26479;DHT22;14163;-26.142;27.992;2022-11-20T15:10:49;31.00;46.60
26479;DHT22;14163;-26.142;27.992;2022-11-20T15:13:25;30.70;46.90
26479;DHT22;14163;-26.142;27.992;2022-11-20T15:15:56;30.50;46.20
26479;DHT22;14163;-26.142;27.992;2022-11-20T15:18:28;30.40;46.30
26479;DHT22;14163;-26.142;27.992;2022-11-20T15:21:01;30.40;46.50
26479;DHT22;14163;-26.142;27.992;2022-11-20T15:23:30;30.30;46.90
26479;DHT22;14163;-26.142;27.992;2022-11-20T15:26:00;30.20;46.80
26479;DHT22;14163;-26.142;27.992;2022-11-20T15:28:33;30.20;47.80
26479;DHT22;14163;-26.142;27.992;2022-11-20T15:31:02;30.20;47.90
26479;DHT22;14163;-26.142;27.992;2022-11-20T15:33:32;30.20;48.30
26479;DHT22;14163;-26.142;27.992;2022-11-20T15:36:02;30.30;47.80
26479;DHT22;14163;-26.142;27.992;2022-11-20T15:38:31;30.30;47.60
26479;DHT22;14163;-26.142;27.992;2022-11-20T15:41:00;30.20;47.40
26479;DHT22;14163;-26.142;27.992;2022-11-20T15:43:31;30.20;47.60
26479;DHT22;14163;-26.142;27.992;2022-11-20T15:46:03;30.00;47.30
26479;DHT22;14163;-26.142;27.992;2022-11-20T15:48:36;29.90;48.40
26479;DHT22;14163;-26.142;27.992;2022-11-20T15:51:11;29.90;48.40
26479;DHT22;14163;-26.142;27.992;2022-11-20T15:53:43;29.90;48.20
26479;DHT22;14163;-26.142;27.992;2022-11-20T15:56:13;29.90;48.30
26479;DHT22;14163;-26.142;27.992;2022-11-20T15:58:44;29.80;48.90
26479;DHT22;14163;-26.142;27.992;2022-11-20T16:01:14;29.80;48.40
26479;DHT22;14163;-26.142;27.992;2022-11-20T16:03:44;29.70;48.90
26479;DHT22;14163;-26.142;27.992;2022-11-20T16:06:14;29.80;49.20
26479;DHT22;14163;-26.142;27.992;2022-11-20T18:12:42;23.10;99.90
26479;DHT22;14163;-26.142;27.992;2022-11-20T18:15:11;23.20;99.90
26479;DHT22;14163;-26.142;27.992;2022-11-20T18:17:40;23.80;99.90
26479;DHT22;14163;-26.142;27.992;2022-11-20T18:20:10;24.30;99.90
26479;DHT22;14163;-26.142;27.992;2022-11-20T18:22:40;24.70;99.90
26479;DHT22;14163;-26.142;27.992;2022-11-20T18:25:09;25.10;99.90
26479;DHT22;14163;-26.142;27.992;2022-11-20T18:27:41;25.50;99.90
26479;DHT22;14163;-26.142;27.992;2022-11-20T18:30:12;25.70;99.90
26479;DHT22;14163;-26.142;27.992;2022-11-20T18:32:41;26.00;99.90
26479;DHT22;14163;-26.142;27.992;2022-11-20T18:35:10;26.20;99.90
26479;DHT22;14163;-26.142;27.992;2022-11-20T18:37:40;26.30;99.90
26479;DHT22;14163;-26.142;27.992;2022-11-20T18:40:10;26.50;99.90
26479;DHT22;14163;-26.142;27.992;2022-11-20T18:42:41;26.40;99.90
26479;DHT22;14163;-26.142;27.992;2022-11-20T18:45:27;26.30;99.90
26479;DHT22;14163;-26.142;27.992;2022-11-20T18:47:56;26.10;99.90
26479;DHT22;14163;-26.142;27.992;2022-11-20T18:50:25;25.90;99.90
26479;DHT22;14163;-26.142;27.992;2022-11-20T18:52:54;25.70;99.90
26479;DHT22;14163;-26.142;27.992;2022-11-20T18:55:23;25.70;99.90
26479;DHT22;14163;-26.142;27.992;2022-11-20T18:57:54;25.50;99.90
26479;DHT22;14163;-26.142;27.992;2022-11-20T19:00:23;25.30;99.90
26479;DHT22;14163;-26.142;27.992;2022-11-20T19:02:53;25.20;99.90
26479;DHT22;14163;-26.142;27.992;2022-11-20T19:05:22;25.20;99.90
26479;DHT22;14163;-26.142;27.992;2022-11-20T19:07:51;25.30;99.90
26479;DHT22;14163;-26.142;27.992;2022-11-20T19:10:21;25.20;99.90
26479;DHT22;14163;-26.142;27.992;2022-11-20T19:12:50;25.00;99.90
26479;DHT22;14163;-26.142;27.992;2022-11-20T19:15:20;24.90;99.90
26479;DHT22;14163;-26.142;27.992;2022-11-20T19:17:50;25.00;99.90
26479;DHT22;14163;-26.142;27.992;2022-11-20T19:20:19;25.20;99.90
26479;DHT22;14163;-26.142;27.992;2022-11-20T19:22:50;25.10;99.90
26479;DHT22;14163;-26.142;27.992;2022-11-20T19:25:19;25.00;99.90
26479;DHT22;14163;-26.142;27.992;2022-11-20T19:27:48;25.10;99.90
26479;DHT22;14163;-26.142;27.992;2022-11-20T19:30:19;24.90;99.90
26479;DHT22;14163;-26.142;27.992;2022-11-20T19:32:48;24.80;99.90
26479;DHT22;14163;-26.142;27.992;2022-11-20T19:35:17;24.70;99.90
26479;DHT22;14163;-26.142;27.992;2022-11-20T19:37:46;24.50;99.90
26479;DHT22;14163;-26.142;27.992;2022-11-20T19:40:16;24.50;99.90
26479;DHT22;14163;-26.142;27.992;2022-11-20T19:42:45;24.50;99.90
26479;DHT22;14163;-26.142;27.992;2022-11-20T19:45:14;24.30;99.90
26479;DHT22;14163;-26.142;27.992;2022-11-20T19:47:45;24.20;99.90